createdAt,value
2019-04-10T00:06:18.973Z,11.50
2019-04-10T00:11:43.191Z,11.40
2019-04-10T00:14:24.047Z,11.40
2019-04-10T00:17:04.807Z,11.10
2019-04-10T00:19:45.520Z,11.30
2019-04-10T00:22:26.335Z,11.20
2019-04-10T00:25:06.715Z,11.20
2019-04-10T00:27:47.175Z,11.20
2019-04-10T00:30:27.503Z,11.10
2019-04-10T00:33:08.217Z,11.20
2019-04-10T00:35:48.441Z,11.20
2019-04-10T00:38:16.121Z,10.70
2019-04-10T00:41:03.885Z,11.10
2019-04-10T00:43:52.139Z,11.10
2019-04-10T00:46:32.542Z,11.10
2019-04-10T00:49:13.494Z,11.10
2019-04-10T00:51:53.814Z,11.20
2019-04-10T00:54:33.809Z,11.00
2019-04-10T00:57:14.920Z,11.30
2019-04-10T00:59:56.815Z,11.10
2019-04-10T01:02:37.259Z,11.00
2019-04-10T01:05:17.355Z,11.20
2019-04-10T01:07:57.542Z,11.10
2019-04-10T01:10:38.750Z,10.90
2019-04-10T01:13:18.850Z,10.90
2019-04-10T01:15:58.921Z,10.90
2019-04-10T01:18:39.517Z,10.60
2019-04-10T01:21:19.984Z,11.00
2019-04-10T01:24:23.694Z,10.90
2019-04-10T01:27:03.493Z,11.00
2019-04-10T01:29:43.964Z,10.80
2019-04-10T01:32:24.538Z,10.90
2019-04-10T01:35:05.692Z,10.80
2019-04-10T01:37:52.088Z,10.80
2019-04-10T01:40:27.575Z,11.00
2019-04-10T01:43:12.821Z,10.80
2019-04-10T01:45:49.730Z,11.00
2019-04-10T01:48:30.165Z,10.90
2019-04-10T01:51:10.813Z,10.80
2019-04-10T01:53:50.863Z,10.80
2019-04-10T01:56:34.633Z,10.90
2019-04-10T01:59:13.849Z,10.80
2019-04-10T02:02:14.635Z,10.60
2019-04-10T02:04:57.134Z,10.70
2019-04-10T02:07:38.194Z,10.80
2019-04-10T02:10:18.837Z,10.60
2019-04-10T02:12:59.072Z,10.60
2019-04-10T02:15:39.685Z,10.70
2019-04-10T02:18:19.691Z,10.60
2019-04-10T02:20:59.746Z,10.60
2019-04-10T02:23:40.637Z,10.60
2019-04-10T02:26:21.323Z,10.70
2019-04-10T02:29:01.734Z,10.80
2019-04-10T02:31:41.957Z,10.80
2019-04-10T02:34:23.249Z,10.80
2019-04-10T02:37:03.338Z,10.90
2019-04-10T02:39:47.723Z,10.80
2019-04-10T02:42:26.620Z,10.90
2019-04-10T02:45:08.297Z,10.90
2019-04-10T02:47:48.507Z,11.00
2019-04-10T02:50:16.605Z,10.70
2019-04-10T02:53:25.625Z,10.90
2019-04-10T02:56:13.622Z,10.90
2019-04-10T02:58:56.520Z,10.90
2019-04-10T03:01:37.935Z,10.80
2019-04-10T03:04:18.424Z,10.80
2019-04-10T03:06:59.812Z,10.80
2019-04-10T03:09:54.859Z,11.00
2019-04-10T03:12:24.531Z,10.80
2019-04-10T03:15:08.598Z,10.80
2019-04-10T03:17:50.993Z,10.70
2019-04-10T03:20:32.101Z,10.70
2019-04-10T03:23:12.132Z,10.80
2019-04-10T03:25:53.031Z,10.80
2019-04-10T03:28:33.546Z,10.90
2019-04-10T03:31:15.740Z,10.70
2019-04-10T03:34:16.778Z,10.80
2019-04-10T03:36:57.978Z,11.00
2019-04-10T03:39:38.515Z,10.80
2019-04-10T03:42:18.947Z,10.80
2019-04-10T03:44:59.414Z,10.70
2019-04-10T03:47:39.733Z,10.80
2019-04-10T03:50:19.474Z,11.10
2019-04-10T03:53:00.184Z,11.30
2019-04-10T03:55:40.976Z,11.00
2019-04-10T03:58:21.308Z,11.00
2019-04-10T04:01:01.467Z,10.70
2019-04-10T04:03:42.582Z,10.80
2019-04-10T04:06:22.482Z,10.80
2019-04-10T04:12:04.483Z,10.80
2019-04-10T04:14:44.598Z,10.60
2019-04-10T04:17:24.599Z,10.60
2019-04-10T04:20:04.608Z,10.50
2019-04-10T04:22:45.984Z,10.60
2019-04-10T04:25:26.026Z,10.60
2019-04-10T04:28:06.677Z,10.60
2019-04-10T04:30:51.715Z,10.70
2019-04-10T04:33:30.002Z,10.30
2019-04-10T04:36:10.306Z,10.50
2019-04-10T04:38:51.403Z,10.50
2019-04-10T04:41:31.894Z,10.50
2019-04-10T04:44:12.378Z,10.50
2019-04-10T04:46:52.725Z,10.60
2019-04-10T04:49:33.605Z,10.60
2019-04-10T04:52:14.279Z,10.40
2019-04-10T04:54:55.243Z,10.40
2019-04-10T04:57:37.834Z,10.40
2019-04-10T05:00:17.418Z,10.60
2019-04-10T05:02:58.215Z,10.30
2019-04-10T05:05:39.130Z,10.30
2019-04-10T05:08:19.674Z,10.40
2019-04-10T05:11:00.163Z,10.40
2019-04-10T05:13:42.399Z,10.60
2019-04-10T05:16:22.838Z,10.50
2019-04-10T05:18:50.468Z,10.50
2019-04-10T05:21:37.565Z,10.50
2019-04-10T05:24:24.614Z,10.60
2019-04-10T05:27:05.716Z,10.40
2019-04-10T05:29:47.084Z,10.70
2019-04-10T05:32:27.378Z,10.60
2019-04-10T05:35:08.978Z,10.50
2019-04-10T05:37:49.967Z,10.60
2019-04-10T05:40:30.145Z,10.70
2019-04-10T05:43:10.062Z,10.50
2019-04-10T05:45:50.683Z,10.60
2019-04-10T05:48:31.592Z,10.60
2019-04-10T05:51:12.558Z,10.60
2019-04-10T05:53:53.688Z,10.50
2019-04-10T05:56:34.344Z,10.60
2019-04-10T05:59:14.685Z,10.70
2019-04-10T06:01:54.746Z,10.80
2019-04-10T06:04:35.679Z,10.80
2019-04-10T06:07:16.966Z,10.80
2019-04-10T06:10:01.994Z,10.90
2019-04-10T06:12:40.066Z,10.90
2019-04-10T06:15:21.059Z,10.90
2019-04-10T06:18:01.159Z,10.80
2019-04-10T06:20:41.761Z,10.90
2019-04-10T06:23:21.458Z,11.00
2019-04-10T06:26:03.434Z,11.00
2019-04-10T06:28:43.445Z,10.90
2019-04-10T06:31:23.353Z,11.00
2019-04-10T06:34:04.589Z,10.90
2019-04-10T06:36:45.919Z,11.10
2019-04-10T06:39:26.807Z,11.20
2019-04-10T06:42:06.720Z,11.40
2019-04-10T06:44:46.797Z,11.20
2019-04-10T06:47:26.849Z,11.30
2019-04-10T06:50:07.003Z,11.40
2019-04-10T06:52:47.191Z,11.40
2019-04-10T06:55:30.178Z,11.70
2019-04-10T06:58:10.207Z,11.50
2019-04-10T07:00:53.279Z,11.40
2019-04-10T07:03:46.943Z,11.70
2019-04-10T07:06:19.872Z,12.20
2019-04-10T07:08:57.157Z,12.00
2019-04-10T07:11:38.658Z,11.90
2019-04-10T07:14:18.967Z,11.80
2019-04-10T07:17:05.017Z,11.80
2019-04-10T07:19:43.661Z,12.00
2019-04-10T07:22:23.575Z,11.80
2019-04-10T07:25:04.726Z,12.10
2019-04-10T07:27:45.919Z,12.00
2019-04-10T07:30:26.713Z,12.00
2019-04-10T07:33:05.847Z,12.00
2019-04-10T07:35:55.163Z,12.20
2019-04-10T07:38:35.019Z,12.10
2019-04-10T07:41:21.227Z,12.10
2019-04-10T07:43:57.315Z,12.20
2019-04-10T07:46:38.215Z,12.30
2019-04-10T07:49:19.431Z,12.40
2019-04-10T07:52:01.918Z,12.30
2019-04-10T07:54:44.569Z,12.30
2019-04-10T07:57:24.554Z,12.30
2019-04-10T08:00:06.675Z,12.20
2019-04-10T08:02:46.989Z,12.30
2019-04-10T08:08:40.422Z,12.20
2019-04-10T08:11:20.407Z,12.20
2019-04-10T08:14:01.359Z,12.30
2019-04-10T08:16:41.608Z,12.40
2019-04-10T08:19:21.846Z,12.20
2019-04-10T08:22:01.751Z,12.40
2019-04-10T08:24:45.741Z,12.50
2019-04-10T08:27:25.612Z,12.60
2019-04-10T08:30:07.397Z,12.70
2019-04-10T08:32:57.065Z,12.60
2019-04-10T08:35:31.500Z,12.90
2019-04-10T08:38:11.489Z,12.90
2019-04-10T08:40:52.319Z,13.10
2019-04-10T08:43:32.557Z,13.10
2019-04-10T08:46:12.919Z,13.20
2019-04-10T08:48:52.493Z,13.20
2019-04-10T08:51:33.183Z,13.10
2019-04-10T08:54:14.116Z,13.30
2019-04-10T08:56:52.633Z,13.40
2019-04-10T08:59:40.212Z,13.40
2019-04-10T09:02:21.918Z,13.20
2019-04-10T09:05:01.740Z,13.40
2019-04-10T09:07:41.557Z,13.50
2019-04-10T09:10:22.647Z,13.30
2019-04-10T09:13:04.171Z,13.40
2019-04-10T09:15:44.034Z,13.30
2019-04-10T09:18:25.214Z,13.30
2019-04-10T09:21:05.502Z,13.30
2019-04-10T09:23:52.447Z,13.20
2019-04-10T09:26:28.538Z,13.20
2019-04-10T09:29:08.837Z,13.20
2019-04-10T09:31:50.244Z,13.40
2019-04-10T09:34:18.009Z,13.20
2019-04-10T09:37:06.003Z,13.20
2019-04-10T09:39:55.371Z,13.30
2019-04-10T09:42:36.577Z,13.40
2019-04-10T09:45:17.791Z,13.40
2019-04-10T09:47:57.937Z,13.50
2019-04-10T09:50:37.735Z,13.70
2019-04-10T09:53:19.029Z,13.60
2019-04-10T09:55:46.991Z,13.50
2019-04-10T09:58:34.361Z,13.70
2019-04-10T10:01:22.067Z,13.70
2019-04-10T10:03:50.901Z,13.70
2019-04-10T10:06:26.059Z,13.80
2019-04-10T10:09:08.384Z,13.80
2019-04-10T10:11:49.761Z,13.90
2019-04-10T10:14:31.927Z,14.00
2019-04-10T10:17:13.170Z,14.10
2019-04-10T10:19:53.847Z,14.20
2019-04-10T10:22:34.393Z,14.10
2019-04-10T10:25:15.228Z,14.10
2019-04-10T10:27:56.497Z,14.20
2019-04-10T10:33:50.030Z,14.40
2019-04-10T10:36:40.820Z,14.60
2019-04-10T10:42:13.865Z,14.80
2019-04-10T10:44:54.403Z,14.90
2019-04-10T10:47:34.285Z,15.30
2019-04-10T10:50:15.178Z,15.40
2019-04-10T10:52:55.615Z,15.60
2019-04-10T10:55:35.819Z,15.70
2019-04-10T10:58:15.517Z,15.60
2019-04-10T11:00:55.739Z,15.70
2019-04-10T11:03:35.649Z,15.70
2019-04-10T11:06:16.735Z,15.40
2019-04-10T11:08:57.856Z,15.40
2019-04-10T11:11:25.489Z,15.50
2019-04-10T11:14:13.224Z,15.40
2019-04-10T11:16:56.115Z,15.50
2019-04-10T11:19:35.487Z,15.30
2019-04-10T11:22:21.800Z,15.50
2019-04-10T11:24:58.121Z,15.60
2019-04-10T11:27:25.798Z,15.60
2019-04-10T11:30:13.574Z,15.70
2019-04-10T11:33:02.610Z,15.80
2019-04-10T11:35:43.935Z,15.80
2019-04-10T11:38:22.093Z,15.70
2019-04-10T11:40:52.071Z,15.70
2019-04-10T11:43:39.322Z,15.80
2019-04-10T11:46:08.116Z,15.70
2019-04-10T11:48:55.576Z,15.70
2019-04-10T11:51:46.152Z,15.60
2019-04-10T11:54:28.588Z,15.60
2019-04-10T11:57:09.952Z,15.40
2019-04-10T11:59:50.247Z,15.40
2019-04-10T12:02:32.097Z,15.40
2019-04-10T12:05:18.500Z,15.50
2019-04-10T12:13:19.929Z,15.20
2019-04-10T12:16:00.995Z,15.00
2019-04-10T12:18:41.163Z,15.20
2019-04-10T12:21:21.870Z,15.00
2019-04-10T12:24:01.692Z,15.30
2019-04-10T12:26:42.338Z,15.10
2019-04-10T12:29:22.573Z,15.00
2019-04-10T12:32:04.194Z,15.10
2019-04-10T12:34:44.506Z,15.10
2019-04-10T12:37:24.216Z,14.70
2019-04-10T12:40:05.491Z,14.70
2019-04-10T12:42:46.136Z,14.80
2019-04-10T12:45:26.432Z,14.80
2019-04-10T12:48:06.418Z,14.80
2019-04-10T12:50:47.461Z,14.60
2019-04-10T12:53:27.583Z,14.70
2019-04-10T12:55:57.747Z,14.80
2019-04-10T12:58:46.698Z,14.60
2019-04-10T13:01:28.956Z,14.60
2019-04-10T13:04:08.789Z,14.70
2019-04-10T13:06:51.484Z,14.60
2019-04-10T13:09:31.769Z,14.70
2019-04-10T13:12:13.177Z,14.80
2019-04-10T13:14:53.030Z,14.60
2019-04-10T13:17:20.699Z,14.60
2019-04-10T13:23:16.367Z,14.60
2019-04-10T13:26:01.796Z,14.40
2019-04-10T13:28:41.496Z,14.40
2019-04-10T13:31:21.487Z,14.50
2019-04-10T13:34:01.397Z,14.50
2019-04-10T13:36:42.198Z,14.40
2019-04-10T13:42:03.207Z,14.40
2019-04-10T13:44:42.831Z,14.30
2019-04-10T13:47:23.696Z,14.40
2019-04-10T13:50:04.263Z,14.30
2019-04-10T13:52:46.714Z,14.30
2019-04-10T13:55:28.356Z,14.40
2019-04-10T13:58:08.816Z,14.30
2019-04-10T14:00:49.764Z,14.20
2019-04-10T14:03:30.144Z,14.10
2019-04-10T14:06:11.637Z,14.00
2019-04-10T14:09:10.946Z,13.90
2019-04-10T14:11:21.532Z,13.80
2019-04-10T14:14:08.565Z,13.80
2019-04-10T14:16:48.870Z,13.60
2019-04-10T14:19:29.875Z,13.70
2019-04-10T14:22:09.948Z,13.60
2019-04-10T14:24:51.165Z,13.50
2019-04-10T14:27:32.225Z,13.70
2019-04-10T14:30:18.794Z,13.30
2019-04-10T14:32:59.313Z,13.50
2019-04-10T14:35:39.289Z,13.40
2019-04-10T14:38:19.372Z,13.40
2019-04-10T14:40:59.378Z,13.30
2019-04-10T14:43:39.744Z,13.30
2019-04-10T14:46:20.684Z,13.40
2019-04-10T14:49:00.723Z,13.30
2019-04-10T14:51:40.840Z,13.10
2019-04-10T14:54:21.717Z,13.00
2019-04-10T14:57:02.343Z,13.10
2019-04-10T14:59:42.945Z,13.00
2019-04-10T15:02:24.358Z,13.00
2019-04-10T15:04:53.026Z,12.70
2019-04-10T15:07:41.041Z,12.80
2019-04-10T15:10:20.689Z,12.60
2019-04-10T15:13:09.211Z,12.70
2019-04-10T15:15:44.812Z,12.60
2019-04-10T15:18:24.841Z,12.50
2019-04-10T15:21:04.941Z,12.50
2019-04-10T15:23:44.926Z,12.40
2019-04-10T15:26:25.954Z,12.50
2019-04-10T15:29:06.066Z,12.50
2019-04-10T15:31:46.265Z,12.50
2019-04-10T15:34:28.210Z,12.40
2019-04-10T15:37:08.891Z,12.60
2019-04-10T15:39:49.633Z,12.60
2019-04-10T15:42:30.215Z,12.50
2019-04-10T15:45:10.615Z,12.50
2019-04-10T15:47:54.157Z,12.70
2019-04-10T15:50:32.673Z,12.50
2019-04-10T15:53:00.288Z,12.50
2019-04-10T15:55:40.654Z,12.50
2019-04-10T15:58:21.523Z,12.50
2019-04-10T16:00:50.224Z,12.50
2019-04-10T16:03:38.688Z,12.50
2019-04-10T16:06:20.886Z,12.40
2019-04-10T16:09:01.062Z,12.70
2019-04-10T16:12:06.153Z,12.40
2019-04-10T16:14:46.667Z,12.50
2019-04-10T16:20:37.382Z,12.60
2019-04-10T16:23:21.846Z,12.60
2019-04-10T16:26:02.862Z,12.30
2019-04-10T16:28:43.087Z,12.50
2019-04-10T16:31:23.541Z,12.40
2019-04-10T16:34:05.125Z,12.40
2019-04-10T16:36:45.810Z,12.40
2019-04-10T16:39:24.317Z,12.20
2019-04-10T16:45:38.353Z,12.30
2019-04-10T16:48:18.916Z,12.50
2019-04-10T16:50:59.672Z,12.30
2019-04-10T16:53:39.747Z,12.30
2019-04-10T16:56:23.376Z,12.20
2019-04-10T16:59:03.279Z,12.30
2019-04-10T17:01:43.491Z,12.20
2019-04-10T17:04:23.527Z,12.40
2019-04-10T17:07:03.688Z,12.20
2019-04-10T17:09:43.872Z,12.20
2019-04-10T17:12:25.662Z,12.30
2019-04-10T17:15:06.167Z,12.20
2019-04-10T17:17:46.443Z,12.20
2019-04-10T17:20:27.033Z,12.10
2019-04-10T17:23:08.066Z,12.00
2019-04-10T17:25:48.756Z,12.10
2019-04-10T17:28:28.453Z,12.10
2019-04-10T17:31:10.942Z,12.20
2019-04-10T17:33:50.641Z,12.10
2019-04-10T17:39:43.885Z,12.10
2019-04-10T17:42:24.170Z,12.00
2019-04-10T17:45:04.602Z,12.10
2019-04-10T17:47:45.122Z,12.00
2019-04-10T17:50:25.650Z,12.10
2019-04-10T17:52:53.503Z,11.90
2019-04-10T17:55:41.884Z,11.80
2019-04-10T17:58:29.695Z,11.90
2019-04-10T18:01:13.092Z,11.80
2019-04-10T18:03:57.226Z,11.90
2019-04-10T18:06:35.459Z,11.90
2019-04-10T18:09:07.618Z,11.80
2019-04-10T18:11:54.661Z,11.80
2019-04-10T18:14:44.023Z,11.80
2019-04-10T18:17:24.926Z,11.80
2019-04-10T18:20:06.337Z,11.90
2019-04-10T18:22:46.866Z,11.70
2019-04-10T18:25:27.691Z,11.60
2019-04-10T18:27:55.402Z,11.60
2019-04-10T18:30:42.473Z,11.60
2019-04-10T18:33:30.750Z,11.60
2019-04-10T18:36:11.274Z,11.70
2019-04-10T18:38:51.505Z,11.60
2019-04-10T18:44:31.309Z,11.60
2019-04-10T18:47:11.405Z,11.60
2019-04-10T18:49:52.331Z,11.80
2019-04-10T18:52:33.104Z,11.60
2019-04-10T18:55:12.702Z,11.60
2019-04-10T18:57:52.978Z,11.60
2019-04-10T19:00:52.518Z,11.50
2019-04-10T19:03:56.873Z,11.50
2019-04-10T19:06:53.131Z,11.70
2019-04-10T19:09:36.844Z,11.50
2019-04-10T19:12:17.205Z,11.40
2019-04-10T19:14:58.307Z,11.30
2019-04-10T19:17:39.037Z,11.50
2019-04-10T19:20:20.569Z,11.50
2019-04-10T19:23:01.354Z,11.40
2019-04-10T19:25:30.239Z,11.30
2019-04-10T19:28:28.027Z,11.50
2019-04-10T19:31:11.061Z,11.50
2019-04-10T19:33:51.197Z,11.40
2019-04-10T19:36:34.297Z,11.40
2019-04-10T19:39:14.157Z,11.50
2019-04-10T19:41:55.632Z,11.30
2019-04-10T19:44:35.469Z,11.50
2019-04-10T19:47:16.233Z,11.50
2019-04-10T19:49:57.598Z,11.50
2019-04-10T19:52:38.370Z,11.50
2019-04-10T19:55:18.366Z,11.50
2019-04-10T20:00:58.986Z,11.50
2019-04-10T20:03:39.678Z,11.60
2019-04-10T20:06:22.108Z,11.40
2019-04-10T20:09:01.663Z,11.50
2019-04-10T20:11:46.292Z,11.50
2019-04-10T20:14:24.155Z,11.60
2019-04-10T20:17:05.949Z,11.50
2019-04-10T20:19:46.760Z,11.40
2019-04-10T20:22:28.227Z,11.40
2019-04-10T20:25:10.280Z,11.40
2019-04-10T20:27:50.290Z,11.40
2019-04-10T20:30:32.756Z,11.40
2019-04-10T20:33:14.483Z,11.30
2019-04-10T20:35:54.554Z,11.30
2019-04-10T20:38:34.905Z,11.50
2019-04-10T20:41:14.773Z,11.50
2019-04-10T20:43:55.386Z,11.60
2019-04-10T20:46:36.021Z,11.40
2019-04-10T20:49:16.295Z,11.90
2019-04-10T20:51:56.196Z,11.40
2019-04-10T20:54:37.101Z,11.40
2019-04-10T20:57:17.513Z,11.40
2019-04-10T20:59:57.742Z,11.30
2019-04-10T21:02:38.297Z,11.40
2019-04-10T21:05:19.766Z,11.30
2019-04-10T21:07:59.934Z,11.40
2019-04-10T21:10:40.881Z,11.20
2019-04-10T21:13:22.079Z,11.50
2019-04-10T21:16:02.968Z,11.40
2019-04-10T21:18:44.218Z,11.40
2019-04-10T21:21:24.646Z,11.40
2019-04-10T21:24:04.867Z,11.40
2019-04-10T21:26:44.889Z,11.40
2019-04-10T21:29:44.366Z,11.40
2019-04-10T21:35:29.317Z,11.40
2019-04-10T21:38:09.313Z,11.40
2019-04-10T21:40:51.812Z,11.40
2019-04-10T21:43:32.009Z,11.30
2019-04-10T21:46:12.299Z,11.50
2019-04-10T21:48:51.987Z,11.60
2019-04-10T21:51:33.477Z,11.50
2019-04-10T21:54:14.028Z,11.40
2019-04-10T21:56:55.503Z,11.30
2019-04-10T21:59:35.286Z,11.70
2019-04-10T22:02:15.590Z,11.50
2019-04-10T22:04:55.809Z,11.50
2019-04-10T22:07:55.185Z,11.50
2019-04-10T22:10:40.026Z,11.60
2019-04-10T22:13:20.109Z,11.50
2019-04-10T22:16:01.689Z,11.40
2019-04-10T22:18:41.605Z,11.30
2019-04-10T22:21:22.768Z,11.50
2019-04-10T22:24:03.053Z,11.40
2019-04-10T22:26:42.878Z,11.60
2019-04-10T22:29:23.093Z,11.50
2019-04-10T22:32:04.130Z,11.50
2019-04-10T22:34:45.011Z,11.50
2019-04-10T22:37:25.796Z,11.50
2019-04-10T22:40:06.632Z,11.50
2019-04-10T22:42:48.193Z,11.50
2019-04-10T22:45:29.325Z,11.50
2019-04-10T22:48:10.895Z,11.40
2019-04-10T22:50:39.714Z,11.50
2019-04-10T22:53:26.837Z,11.40
2019-04-10T22:56:07.258Z,11.40
2019-04-10T22:58:47.302Z,11.40
2019-04-10T23:01:27.557Z,11.60
2019-04-10T23:04:08.024Z,11.40
2019-04-10T23:06:49.310Z,11.40
2019-04-10T23:09:30.610Z,11.40
2019-04-10T23:12:10.589Z,11.50
2019-04-10T23:14:51.149Z,11.40
2019-04-10T23:17:32.544Z,11.40
2019-04-10T23:20:12.924Z,11.40
2019-04-10T23:22:52.957Z,11.30
2019-04-10T23:25:34.225Z,11.40
2019-04-10T23:31:27.864Z,11.60
2019-04-10T23:34:08.389Z,11.60
2019-04-10T23:36:48.654Z,11.20
2019-04-10T23:39:16.362Z,11.30
2019-04-10T23:42:04.881Z,11.30
2019-04-10T23:44:53.248Z,11.30
2019-04-10T23:47:34.086Z,11.20
2019-04-10T23:50:15.099Z,11.20
2019-04-10T23:52:54.051Z,11.40
2019-04-10T23:55:41.944Z,11.30
2019-04-10T23:58:24.223Z,11.20
